sensor_id;sensor_type;location;lat;lon;timestamp;P1;durP1;ratioP1;P2;durP2;ratioP2
78646;SDS011;67961;43.460;3.762;2023-07-29T00:01:35;10.70;;;3.50;;
78646;SDS011;67961;43.460;3.762;2023-07-29T00:04:00;11.02;;;3.45;;
78646;SDS011;67961;43.460;3.762;2023-07-29T00:06:26;6.38;;;3.00;;
78646;SDS011;67961;43.460;3.762;2023-07-29T00:08:52;5.85;;;3.28;;
78646;SDS011;67961;43.460;3.762;2023-07-29T00:11:18;9.23;;;3.63;;
78646;SDS011;67961;43.460;3.762;2023-07-29T00:13:43;9.18;;;3.40;;
78646;SDS011;67961;43.460;3.762;2023-07-29T00:16:09;5.47;;;3.13;;
78646;SDS011;67961;43.460;3.762;2023-07-29T00:18:35;9.15;;;3.47;;
78646;SDS011;67961;43.460;3.762;2023-07-29T00:21:01;11.38;;;3.85;;
78646;SDS011;67961;43.460;3.762;2023-07-29T00:23:27;8.40;;;3.40;;
78646;SDS011;67961;43.460;3.762;2023-07-29T00:25:53;7.47;;;3.72;;
78646;SDS011;67961;43.460;3.762;2023-07-29T00:28:18;7.55;;;3.70;;
78646;SDS011;67961;43.460;3.762;2023-07-29T00:30:44;7.38;;;3.58;;
78646;SDS011;67961;43.460;3.762;2023-07-29T00:33:09;5.85;;;3.10;;
78646;SDS011;67961;43.460;3.762;2023-07-29T00:35:35;6.18;;;3.03;;
78646;SDS011;67961;43.460;3.762;2023-07-29T00:38:01;8.07;;;2.85;;
78646;SDS011;67961;43.460;3.762;2023-07-29T00:40:27;10.88;;;3.42;;
78646;SDS011;67961;43.460;3.762;2023-07-29T00:42:54;10.25;;;4.10;;
78646;SDS011;67961;43.460;3.762;2023-07-29T00:45:20;7.03;;;3.15;;
78646;SDS011;67961;43.460;3.762;2023-07-29T00:47:46;7.47;;;3.33;;
78646;SDS011;67961;43.460;3.762;2023-07-29T00:50:13;13.23;;;3.80;;
78646;SDS011;67961;43.460;3.762;2023-07-29T00:52:39;9.02;;;4.05;;
78646;SDS011;67961;43.460;3.762;2023-07-29T00:55:06;9.85;;;3.38;;
78646;SDS011;67961;43.460;3.762;2023-07-29T00:57:32;8.13;;;3.65;;
78646;SDS011;67961;43.460;3.762;2023-07-29T00:59:58;9.82;;;3.95;;
78646;SDS011;67961;43.460;3.762;2023-07-29T01:02:24;7.20;;;3.20;;
78646;SDS011;67961;43.460;3.762;2023-07-29T01:04:54;8.00;;;3.67;;
78646;SDS011;67961;43.460;3.762;2023-07-29T01:08:09;9.32;;;3.17;;
78646;SDS011;67961;43.460;3.762;2023-07-29T01:10:19;8.77;;;3.75;;
78646;SDS011;67961;43.460;3.762;2023-07-29T01:12:59;9.57;;;3.63;;
78646;SDS011;67961;43.460;3.762;2023-07-29T01:18:30;8.38;;;3.25;;
78646;SDS011;67961;43.460;3.762;2023-07-29T01:21:01;10.23;;;3.90;;
78646;SDS011;67961;43.460;3.762;2023-07-29T01:23:30;9.40;;;3.67;;
78646;SDS011;67961;43.460;3.762;2023-07-29T01:25:56;6.30;;;3.67;;
78646;SDS011;67961;43.460;3.762;2023-07-29T01:28:22;10.52;;;3.22;;
78646;SDS011;67961;43.460;3.762;2023-07-29T01:30:49;13.25;;;3.58;;
78646;SDS011;67961;43.460;3.762;2023-07-29T01:33:18;6.05;;;3.15;;
78646;SDS011;67961;43.460;3.762;2023-07-29T01:36:03;11.13;;;4.15;;
78646;SDS011;67961;43.460;3.762;2023-07-29T01:38:36;7.88;;;3.53;;
78646;SDS011;67961;43.460;3.762;2023-07-29T01:41:06;8.00;;;3.40;;
78646;SDS011;67961;43.460;3.762;2023-07-29T01:43:34;10.88;;;4.00;;
78646;SDS011;67961;43.460;3.762;2023-07-29T01:46:12;8.23;;;3.72;;
78646;SDS011;67961;43.460;3.762;2023-07-29T01:48:40;8.67;;;3.63;;
78646;SDS011;67961;43.460;3.762;2023-07-29T01:51:06;7.00;;;3.42;;
78646;SDS011;67961;43.460;3.762;2023-07-29T01:53:33;7.35;;;3.03;;
78646;SDS011;67961;43.460;3.762;2023-07-29T01:55:58;7.30;;;3.47;;
78646;SDS011;67961;43.460;3.762;2023-07-29T01:58:24;8.80;;;3.90;;
78646;SDS011;67961;43.460;3.762;2023-07-29T02:00:50;9.25;;;3.30;;
78646;SDS011;67961;43.460;3.762;2023-07-29T02:03:16;6.97;;;3.13;;
78646;SDS011;67961;43.460;3.762;2023-07-29T02:05:41;10.63;;;4.03;;
78646;SDS011;67961;43.460;3.762;2023-07-29T02:08:08;8.25;;;3.40;;
78646;SDS011;67961;43.460;3.762;2023-07-29T02:10:34;12.70;;;4.95;;
78646;SDS011;67961;43.460;3.762;2023-07-29T02:13:00;11.07;;;4.97;;
78646;SDS011;67961;43.460;3.762;2023-07-29T02:15:26;9.18;;;3.60;;
78646;SDS011;67961;43.460;3.762;2023-07-29T02:17:52;9.30;;;4.13;;
78646;SDS011;67961;43.460;3.762;2023-07-29T02:20:18;10.60;;;4.35;;
78646;SDS011;67961;43.460;3.762;2023-07-29T02:22:44;8.77;;;4.10;;
78646;SDS011;67961;43.460;3.762;2023-07-29T02:25:10;7.00;;;3.42;;
78646;SDS011;67961;43.460;3.762;2023-07-29T02:27:35;9.10;;;4.00;;
78646;SDS011;67961;43.460;3.762;2023-07-29T02:30:01;10.52;;;3.85;;
78646;SDS011;67961;43.460;3.762;2023-07-29T02:32:28;9.13;;;3.70;;
78646;SDS011;67961;43.460;3.762;2023-07-29T02:34:54;9.35;;;4.50;;
78646;SDS011;67961;43.460;3.762;2023-07-29T02:37:19;7.28;;;3.95;;
78646;SDS011;67961;43.460;3.762;2023-07-29T02:39:45;9.45;;;3.67;;
78646;SDS011;67961;43.460;3.762;2023-07-29T02:42:11;8.38;;;4.35;;
78646;SDS011;67961;43.460;3.762;2023-07-29T02:44:37;8.10;;;4.25;;
78646;SDS011;67961;43.460;3.762;2023-07-29T02:47:03;11.15;;;4.35;;
78646;SDS011;67961;43.460;3.762;2023-07-29T02:49:29;9.52;;;4.22;;
78646;SDS011;67961;43.460;3.762;2023-07-29T02:51:54;10.65;;;3.80;;
78646;SDS011;67961;43.460;3.762;2023-07-29T02:54:20;10.13;;;4.18;;
78646;SDS011;67961;43.460;3.762;2023-07-29T02:56:45;10.25;;;3.72;;
78646;SDS011;67961;43.460;3.762;2023-07-29T02:59:11;9.25;;;4.03;;
78646;SDS011;67961;43.460;3.762;2023-07-29T03:01:37;12.60;;;4.30;;
78646;SDS011;67961;43.460;3.762;2023-07-29T03:04:02;8.45;;;3.95;;
78646;SDS011;67961;43.460;3.762;2023-07-29T03:06:28;9.07;;;4.65;;
78646;SDS011;67961;43.460;3.762;2023-07-29T03:08:54;11.55;;;3.97;;
78646;SDS011;67961;43.460;3.762;2023-07-29T03:11:19;11.52;;;4.07;;
78646;SDS011;67961;43.460;3.762;2023-07-29T03:13:45;12.85;;;4.20;;
78646;SDS011;67961;43.460;3.762;2023-07-29T03:16:12;7.57;;;3.92;;
78646;SDS011;67961;43.460;3.762;2023-07-29T03:18:39;9.25;;;4.10;;
78646;SDS011;67961;43.460;3.762;2023-07-29T03:21:05;8.60;;;4.00;;
78646;SDS011;67961;43.460;3.762;2023-07-29T03:23:32;11.18;;;4.35;;
78646;SDS011;67961;43.460;3.762;2023-07-29T03:25:58;10.10;;;4.82;;
78646;SDS011;67961;43.460;3.762;2023-07-29T03:28:26;14.30;;;4.70;;
78646;SDS011;67961;43.460;3.762;2023-07-29T03:30:53;12.25;;;4.43;;
78646;SDS011;67961;43.460;3.762;2023-07-29T03:33:19;8.90;;;4.45;;
78646;SDS011;67961;43.460;3.762;2023-07-29T03:35:45;11.25;;;4.38;;
78646;SDS011;67961;43.460;3.762;2023-07-29T03:38:11;9.50;;;4.47;;
78646;SDS011;67961;43.460;3.762;2023-07-29T03:40:39;9.85;;;4.50;;
78646;SDS011;67961;43.460;3.762;2023-07-29T03:43:06;12.98;;;4.75;;
78646;SDS011;67961;43.460;3.762;2023-07-29T03:45:32;16.77;;;4.93;;
78646;SDS011;67961;43.460;3.762;2023-07-29T03:47:58;10.68;;;5.65;;
78646;SDS011;67961;43.460;3.762;2023-07-29T03:50:24;18.30;;;6.10;;
78646;SDS011;67961;43.460;3.762;2023-07-29T03:52:50;21.85;;;6.68;;
78646;SDS011;67961;43.460;3.762;2023-07-29T03:55:15;19.80;;;7.07;;
78646;SDS011;67961;43.460;3.762;2023-07-29T03:57:41;17.73;;;7.93;;
78646;SDS011;67961;43.460;3.762;2023-07-29T04:00:07;18.42;;;5.72;;
78646;SDS011;67961;43.460;3.762;2023-07-29T04:02:34;15.48;;;6.30;;
78646;SDS011;67961;43.460;3.762;2023-07-29T04:05:02;10.52;;;5.38;;
78646;SDS011;67961;43.460;3.762;2023-07-29T04:07:29;14.23;;;7.28;;
78646;SDS011;67961;43.460;3.762;2023-07-29T04:09:55;9.00;;;5.20;;
78646;SDS011;67961;43.460;3.762;2023-07-29T04:12:21;13.90;;;5.72;;
78646;SDS011;67961;43.460;3.762;2023-07-29T04:14:48;12.48;;;5.63;;
78646;SDS011;67961;43.460;3.762;2023-07-29T04:17:14;9.18;;;4.88;;
78646;SDS011;67961;43.460;3.762;2023-07-29T04:19:42;8.77;;;5.43;;
78646;SDS011;67961;43.460;3.762;2023-07-29T04:22:08;12.48;;;5.65;;
78646;SDS011;67961;43.460;3.762;2023-07-29T04:24:34;12.18;;;5.68;;
78646;SDS011;67961;43.460;3.762;2023-07-29T04:27:00;8.68;;;5.38;;
78646;SDS011;67961;43.460;3.762;2023-07-29T04:29:28;10.43;;;4.95;;
78646;SDS011;67961;43.460;3.762;2023-07-29T04:31:54;16.40;;;6.22;;
78646;SDS011;67961;43.460;3.762;2023-07-29T04:34:19;17.70;;;6.32;;
78646;SDS011;67961;43.460;3.762;2023-07-29T04:36:45;13.95;;;5.53;;
78646;SDS011;67961;43.460;3.762;2023-07-29T04:39:11;15.18;;;6.35;;
78646;SDS011;67961;43.460;3.762;2023-07-29T04:41:37;11.57;;;6.30;;
78646;SDS011;67961;43.460;3.762;2023-07-29T04:44:03;18.90;;;6.78;;
78646;SDS011;67961;43.460;3.762;2023-07-29T04:46:29;19.55;;;7.38;;
78646;SDS011;67961;43.460;3.762;2023-07-29T04:48:54;18.50;;;7.20;;
78646;SDS011;67961;43.460;3.762;2023-07-29T04:51:20;25.55;;;7.03;;
78646;SDS011;67961;43.460;3.762;2023-07-29T04:53:46;14.05;;;6.78;;
78646;SDS011;67961;43.460;3.762;2023-07-29T04:56:12;36.75;;;6.55;;
78646;SDS011;67961;43.460;3.762;2023-07-29T04:58:45;23.35;;;9.07;;
78646;SDS011;67961;43.460;3.762;2023-07-29T05:01:11;35.53;;;9.45;;
78646;SDS011;67961;43.460;3.762;2023-07-29T05:03:37;32.40;;;9.23;;
78646;SDS011;67961;43.460;3.762;2023-07-29T05:06:04;46.80;;;10.60;;
78646;SDS011;67961;43.460;3.762;2023-07-29T05:08:30;44.65;;;12.27;;
78646;SDS011;67961;43.460;3.762;2023-07-29T05:10:56;46.75;;;12.18;;
78646;SDS011;67961;43.460;3.762;2023-07-29T05:13:22;63.38;;;13.63;;
78646;SDS011;67961;43.460;3.762;2023-07-29T05:15:48;51.83;;;11.10;;
78646;SDS011;67961;43.460;3.762;2023-07-29T05:18:14;53.30;;;12.20;;
78646;SDS011;67961;43.460;3.762;2023-07-29T05:20:40;55.75;;;12.80;;
78646;SDS011;67961;43.460;3.762;2023-07-29T05:23:06;44.45;;;12.15;;
78646;SDS011;67961;43.460;3.762;2023-07-29T05:25:32;47.80;;;13.18;;
78646;SDS011;67961;43.460;3.762;2023-07-29T05:27:59;58.78;;;12.57;;
78646;SDS011;67961;43.460;3.762;2023-07-29T05:30:29;53.65;;;12.73;;
78646;SDS011;67961;43.460;3.762;2023-07-29T05:32:59;38.80;;;13.15;;
78646;SDS011;67961;43.460;3.762;2023-07-29T05:35:25;42.83;;;10.85;;
78646;SDS011;67961;43.460;3.762;2023-07-29T05:37:51;34.22;;;10.23;;
78646;SDS011;67961;43.460;3.762;2023-07-29T05:40:16;48.28;;;12.25;;
78646;SDS011;67961;43.460;3.762;2023-07-29T05:42:42;35.97;;;11.18;;
78646;SDS011;67961;43.460;3.762;2023-07-29T05:45:11;37.97;;;12.50;;
78646;SDS011;67961;43.460;3.762;2023-07-29T05:47:36;31.52;;;11.52;;
78646;SDS011;67961;43.460;3.762;2023-07-29T05:50:02;25.75;;;10.05;;
78646;SDS011;67961;43.460;3.762;2023-07-29T05:52:29;24.80;;;10.25;;
78646;SDS011;67961;43.460;3.762;2023-07-29T05:54:58;22.73;;;9.00;;
78646;SDS011;67961;43.460;3.762;2023-07-29T05:57:24;22.33;;;8.98;;
78646;SDS011;67961;43.460;3.762;2023-07-29T05:59:49;23.08;;;8.18;;
78646;SDS011;67961;43.460;3.762;2023-07-29T06:02:15;21.50;;;8.57;;
78646;SDS011;67961;43.460;3.762;2023-07-29T06:04:41;20.70;;;9.85;;
78646;SDS011;67961;43.460;3.762;2023-07-29T06:07:06;25.27;;;10.15;;
78646;SDS011;67961;43.460;3.762;2023-07-29T06:09:32;24.58;;;9.57;;
78646;SDS011;67961;43.460;3.762;2023-07-29T06:11:58;23.13;;;10.05;;
78646;SDS011;67961;43.460;3.762;2023-07-29T06:14:23;18.77;;;10.23;;
78646;SDS011;67961;43.460;3.762;2023-07-29T06:16:49;21.20;;;10.88;;
78646;SDS011;67961;43.460;3.762;2023-07-29T06:19:15;21.23;;;10.40;;
78646;SDS011;67961;43.460;3.762;2023-07-29T06:21:41;19.40;;;10.48;;
78646;SDS011;67961;43.460;3.762;2023-07-29T06:24:07;21.27;;;10.48;;
78646;SDS011;67961;43.460;3.762;2023-07-29T06:26:32;21.35;;;10.40;;
78646;SDS011;67961;43.460;3.762;2023-07-29T06:28:58;14.63;;;8.48;;
78646;SDS011;67961;43.460;3.762;2023-07-29T06:31:23;18.73;;;8.57;;
78646;SDS011;67961;43.460;3.762;2023-07-29T06:33:49;18.52;;;9.00;;
78646;SDS011;67961;43.460;3.762;2023-07-29T06:36:15;19.15;;;8.82;;
78646;SDS011;67961;43.460;3.762;2023-07-29T06:38:40;20.42;;;8.15;;
78646;SDS011;67961;43.460;3.762;2023-07-29T06:41:06;16.83;;;7.63;;
78646;SDS011;67961;43.460;3.762;2023-07-29T06:43:32;16.33;;;8.82;;
78646;SDS011;67961;43.460;3.762;2023-07-29T06:45:58;22.17;;;8.48;;
78646;SDS011;67961;43.460;3.762;2023-07-29T06:48:23;14.60;;;8.07;;
78646;SDS011;67961;43.460;3.762;2023-07-29T06:50:49;15.30;;;7.78;;
78646;SDS011;67961;43.460;3.762;2023-07-29T06:53:15;15.85;;;7.70;;
78646;SDS011;67961;43.460;3.762;2023-07-29T06:55:41;15.23;;;6.72;;
78646;SDS011;67961;43.460;3.762;2023-07-29T06:58:07;14.65;;;7.35;;
78646;SDS011;67961;43.460;3.762;2023-07-29T07:00:33;18.60;;;7.78;;
78646;SDS011;67961;43.460;3.762;2023-07-29T07:02:59;13.02;;;6.95;;
78646;SDS011;67961;43.460;3.762;2023-07-29T07:05:24;13.73;;;7.13;;
78646;SDS011;67961;43.460;3.762;2023-07-29T07:07:50;13.15;;;6.28;;
78646;SDS011;67961;43.460;3.762;2023-07-29T07:10:16;12.00;;;6.28;;
78646;SDS011;67961;43.460;3.762;2023-07-29T07:12:41;15.07;;;8.20;;
78646;SDS011;67961;43.460;3.762;2023-07-29T07:15:07;12.48;;;7.00;;
78646;SDS011;67961;43.460;3.762;2023-07-29T07:17:33;18.25;;;8.77;;
78646;SDS011;67961;43.460;3.762;2023-07-29T07:19:59;15.10;;;7.25;;
78646;SDS011;67961;43.460;3.762;2023-07-29T07:22:24;14.82;;;8.02;;
78646;SDS011;67961;43.460;3.762;2023-07-29T07:24:50;11.02;;;6.90;;
78646;SDS011;67961;43.460;3.762;2023-07-29T07:27:15;14.95;;;8.05;;
78646;SDS011;67961;43.460;3.762;2023-07-29T07:29:41;17.15;;;7.13;;
78646;SDS011;67961;43.460;3.762;2023-07-29T07:32:07;11.07;;;6.57;;
78646;SDS011;67961;43.460;3.762;2023-07-29T07:34:32;21.38;;;7.13;;
78646;SDS011;67961;43.460;3.762;2023-07-29T07:36:59;11.95;;;6.95;;
78646;SDS011;67961;43.460;3.762;2023-07-29T07:39:28;14.27;;;6.80;;
78646;SDS011;67961;43.460;3.762;2023-07-29T07:41:54;18.02;;;9.10;;
78646;SDS011;67961;43.460;3.762;2023-07-29T07:44:20;16.48;;;7.18;;
78646;SDS011;67961;43.460;3.762;2023-07-29T07:46:46;17.27;;;6.97;;
78646;SDS011;67961;43.460;3.762;2023-07-29T07:49:11;14.95;;;7.43;;
78646;SDS011;67961;43.460;3.762;2023-07-29T07:51:38;14.48;;;7.25;;
78646;SDS011;67961;43.460;3.762;2023-07-29T07:54:04;16.30;;;8.10;;
78646;SDS011;67961;43.460;3.762;2023-07-29T07:56:29;18.83;;;8.25;;
78646;SDS011;67961;43.460;3.762;2023-07-29T07:58:55;15.02;;;7.85;;
78646;SDS011;67961;43.460;3.762;2023-07-29T08:01:21;15.20;;;8.35;;
78646;SDS011;67961;43.460;3.762;2023-07-29T08:03:46;22.48;;;7.72;;
78646;SDS011;67961;43.460;3.762;2023-07-29T08:06:12;19.52;;;9.15;;
78646;SDS011;67961;43.460;3.762;2023-07-29T08:08:38;16.65;;;7.70;;
78646;SDS011;67961;43.460;3.762;2023-07-29T08:11:04;15.75;;;7.72;;
78646;SDS011;67961;43.460;3.762;2023-07-29T08:13:29;12.85;;;8.52;;
78646;SDS011;67961;43.460;3.762;2023-07-29T08:15:55;17.30;;;6.85;;
78646;SDS011;67961;43.460;3.762;2023-07-29T08:18:21;16.55;;;6.05;;
78646;SDS011;67961;43.460;3.762;2023-07-29T08:20:53;14.32;;;7.60;;
78646;SDS011;67961;43.460;3.762;2023-07-29T08:23:20;15.75;;;8.38;;
78646;SDS011;67961;43.460;3.762;2023-07-29T08:25:51;19.42;;;8.20;;
78646;SDS011;67961;43.460;3.762;2023-07-29T08:28:21;12.73;;;8.13;;
78646;SDS011;67961;43.460;3.762;2023-07-29T08:30:47;21.45;;;7.68;;
78646;SDS011;67961;43.460;3.762;2023-07-29T08:33:13;10.85;;;7.32;;
78646;SDS011;67961;43.460;3.762;2023-07-29T08:35:39;18.67;;;8.15;;
78646;SDS011;67961;43.460;3.762;2023-07-29T08:38:05;16.17;;;8.55;;
78646;SDS011;67961;43.460;3.762;2023-07-29T08:40:31;14.35;;;8.00;;
78646;SDS011;67961;43.460;3.762;2023-07-29T08:42:58;13.13;;;7.55;;
78646;SDS011;67961;43.460;3.762;2023-07-29T08:45:29;14.45;;;7.43;;
78646;SDS011;67961;43.460;3.762;2023-07-29T08:48:01;14.27;;;8.05;;
78646;SDS011;67961;43.460;3.762;2023-07-29T08:50:32;14.45;;;7.63;;
78646;SDS011;67961;43.460;3.762;2023-07-29T08:52:58;9.20;;;6.47;;
78646;SDS011;67961;43.460;3.762;2023-07-29T08:55:25;15.07;;;8.00;;
78646;SDS011;67961;43.460;3.762;2023-07-29T08:57:51;17.13;;;7.65;;
78646;SDS011;67961;43.460;3.762;2023-07-29T09:00:17;12.35;;;7.13;;
78646;SDS011;67961;43.460;3.762;2023-07-29T09:02:44;13.90;;;7.80;;
78646;SDS011;67961;43.460;3.762;2023-07-29T09:05:10;16.92;;;8.30;;
78646;SDS011;67961;43.460;3.762;2023-07-29T09:07:36;14.52;;;7.38;;
78646;SDS011;67961;43.460;3.762;2023-07-29T09:10:03;15.05;;;7.63;;
78646;SDS011;67961;43.460;3.762;2023-07-29T09:12:29;11.63;;;7.20;;
78646;SDS011;67961;43.460;3.762;2023-07-29T09:14:55;13.43;;;7.13;;
78646;SDS011;67961;43.460;3.762;2023-07-29T09:17:20;12.90;;;6.70;;
78646;SDS011;67961;43.460;3.762;2023-07-29T09:19:50;16.83;;;7.97;;
78646;SDS011;67961;43.460;3.762;2023-07-29T09:22:19;14.95;;;8.82;;
78646;SDS011;67961;43.460;3.762;2023-07-29T09:24:46;15.35;;;7.88;;
78646;SDS011;67961;43.460;3.762;2023-07-29T09:27:33;22.92;;;7.78;;
78646;SDS011;67961;43.460;3.762;2023-07-29T09:30:03;15.55;;;7.18;;
78646;SDS011;67961;43.460;3.762;2023-07-29T09:32:30;13.82;;;6.93;;
78646;SDS011;67961;43.460;3.762;2023-07-29T09:34:55;14.38;;;6.35;;
78646;SDS011;67961;43.460;3.762;2023-07-29T09:37:22;16.63;;;7.15;;
78646;SDS011;67961;43.460;3.762;2023-07-29T09:39:48;13.02;;;5.75;;
78646;SDS011;67961;43.460;3.762;2023-07-29T09:44:00;19.45;;;6.95;;
78646;SDS011;67961;43.460;3.762;2023-07-29T09:46:36;11.15;;;6.28;;
78646;SDS011;67961;43.460;3.762;2023-07-29T09:49:07;14.65;;;6.13;;
78646;SDS011;67961;43.460;3.762;2023-07-29T09:51:39;14.50;;;6.93;;
78646;SDS011;67961;43.460;3.762;2023-07-29T09:54:05;19.00;;;6.97;;
78646;SDS011;67961;43.460;3.762;2023-07-29T09:56:31;9.85;;;6.97;;
78646;SDS011;67961;43.460;3.762;2023-07-29T09:58:59;9.65;;;6.00;;
78646;SDS011;67961;43.460;3.762;2023-07-29T10:01:25;10.38;;;6.30;;
78646;SDS011;67961;43.460;3.762;2023-07-29T10:03:51;10.98;;;6.38;;
78646;SDS011;67961;43.460;3.762;2023-07-29T10:06:17;12.93;;;6.28;;
78646;SDS011;67961;43.460;3.762;2023-07-29T10:08:43;12.95;;;6.30;;
78646;SDS011;67961;43.460;3.762;2023-07-29T10:11:10;11.90;;;6.07;;
78646;SDS011;67961;43.460;3.762;2023-07-29T10:13:37;15.57;;;7.38;;
78646;SDS011;67961;43.460;3.762;2023-07-29T10:16:03;11.02;;;7.20;;
78646;SDS011;67961;43.460;3.762;2023-07-29T10:18:30;13.27;;;6.55;;
78646;SDS011;67961;43.460;3.762;2023-07-29T10:20:57;9.95;;;6.28;;
78646;SDS011;67961;43.460;3.762;2023-07-29T10:23:24;11.75;;;6.53;;
78646;SDS011;67961;43.460;3.762;2023-07-29T10:25:57;11.68;;;6.43;;
78646;SDS011;67961;43.460;3.762;2023-07-29T10:28:30;11.00;;;5.80;;
78646;SDS011;67961;43.460;3.762;2023-07-29T10:30:57;14.60;;;6.32;;
78646;SDS011;67961;43.460;3.762;2023-07-29T10:33:24;9.52;;;5.60;;
78646;SDS011;67961;43.460;3.762;2023-07-29T10:35:51;10.32;;;6.05;;
78646;SDS011;67961;43.460;3.762;2023-07-29T10:38:19;10.48;;;5.97;;
78646;SDS011;67961;43.460;3.762;2023-07-29T10:40:48;13.18;;;7.05;;
78646;SDS011;67961;43.460;3.762;2023-07-29T10:45:58;9.60;;;6.95;;
78646;SDS011;67961;43.460;3.762;2023-07-29T10:48:41;12.23;;;8.15;;
78646;SDS011;67961;43.460;3.762;2023-07-29T10:51:24;9.68;;;7.53;;
78646;SDS011;67961;43.460;3.762;2023-07-29T10:53:52;12.05;;;7.38;;
78646;SDS011;67961;43.460;3.762;2023-07-29T10:56:29;10.23;;;7.25;;
78646;SDS011;67961;43.460;3.762;2023-07-29T10:58:58;10.95;;;6.53;;
78646;SDS011;67961;43.460;3.762;2023-07-29T11:02:30;12.07;;;7.30;;
78646;SDS011;67961;43.460;3.762;2023-07-29T11:04:47;10.70;;;6.63;;
78646;SDS011;67961;43.460;3.762;2023-07-29T11:09:41;6.05;;;4.85;;
78646;SDS011;67961;43.460;3.762;2023-07-29T11:15:21;10.82;;;5.47;;
78646;SDS011;67961;43.460;3.762;2023-07-29T11:20:19;6.75;;;5.05;;
78646;SDS011;67961;43.460;3.762;2023-07-29T11:23:03;6.53;;;5.40;;
78646;SDS011;67961;43.460;3.762;2023-07-29T11:25:30;7.10;;;5.57;;
78646;SDS011;67961;43.460;3.762;2023-07-29T11:27:58;9.80;;;5.70;;
78646;SDS011;67961;43.460;3.762;2023-07-29T11:30:25;10.05;;;5.68;;
78646;SDS011;67961;43.460;3.762;2023-07-29T11:32:52;16.52;;;6.97;;
78646;SDS011;67961;43.460;3.762;2023-07-29T11:40:00;12.10;;;6.45;;
78646;SDS011;67961;43.460;3.762;2023-07-29T11:42:27;11.27;;;6.82;;
78646;SDS011;67961;43.460;3.762;2023-07-29T11:44:53;9.52;;;7.00;;
78646;SDS011;67961;43.460;3.762;2023-07-29T11:47:23;11.45;;;7.03;;
78646;SDS011;67961;43.460;3.762;2023-07-29T11:49:48;12.32;;;7.57;;
78646;SDS011;67961;43.460;3.762;2023-07-29T11:52:14;11.35;;;7.75;;
78646;SDS011;67961;43.460;3.762;2023-07-29T11:54:44;12.23;;;6.97;;
78646;SDS011;67961;43.460;3.762;2023-07-29T11:57:13;16.20;;;6.88;;
78646;SDS011;67961;43.460;3.762;2023-07-29T11:59:43;16.20;;;7.45;;
78646;SDS011;67961;43.460;3.762;2023-07-29T12:02:11;11.55;;;7.15;;
78646;SDS011;67961;43.460;3.762;2023-07-29T12:04:43;9.63;;;6.22;;
78646;SDS011;67961;43.460;3.762;2023-07-29T12:07:11;12.27;;;6.78;;
78646;SDS011;67961;43.460;3.762;2023-07-29T12:09:38;12.23;;;6.18;;
78646;SDS011;67961;43.460;3.762;2023-07-29T12:12:05;13.82;;;6.55;;
78646;SDS011;67961;43.460;3.762;2023-07-29T12:14:31;10.63;;;5.90;;
78646;SDS011;67961;43.460;3.762;2023-07-29T12:16:59;11.70;;;6.22;;
78646;SDS011;67961;43.460;3.762;2023-07-29T12:19:33;15.73;;;7.00;;
78646;SDS011;67961;43.460;3.762;2023-07-29T12:22:03;14.60;;;7.47;;
78646;SDS011;67961;43.460;3.762;2023-07-29T12:24:30;15.15;;;6.85;;
78646;SDS011;67961;43.460;3.762;2023-07-29T12:26:56;15.57;;;6.63;;
78646;SDS011;67961;43.460;3.762;2023-07-29T12:29:22;16.38;;;6.50;;
78646;SDS011;67961;43.460;3.762;2023-07-29T12:31:49;13.55;;;5.85;;
78646;SDS011;67961;43.460;3.762;2023-07-29T12:34:22;11.35;;;6.72;;
78646;SDS011;67961;43.460;3.762;2023-07-29T12:36:50;17.67;;;7.35;;
78646;SDS011;67961;43.460;3.762;2023-07-29T12:39:20;14.55;;;6.10;;
78646;SDS011;67961;43.460;3.762;2023-07-29T12:41:53;9.98;;;5.90;;
78646;SDS011;67961;43.460;3.762;2023-07-29T12:44:20;12.20;;;6.40;;
78646;SDS011;67961;43.460;3.762;2023-07-29T12:46:47;11.65;;;5.20;;
78646;SDS011;67961;43.460;3.762;2023-07-29T12:49:13;14.18;;;6.90;;
78646;SDS011;67961;43.460;3.762;2023-07-29T12:51:38;15.48;;;6.15;;
78646;SDS011;67961;43.460;3.762;2023-07-29T12:54:04;10.20;;;5.43;;
78646;SDS011;67961;43.460;3.762;2023-07-29T12:56:30;12.52;;;5.80;;
78646;SDS011;67961;43.460;3.762;2023-07-29T12:58:57;9.45;;;5.85;;
78646;SDS011;67961;43.460;3.762;2023-07-29T13:01:23;9.32;;;5.18;;
78646;SDS011;67961;43.460;3.762;2023-07-29T13:03:49;11.38;;;5.40;;
78646;SDS011;67961;43.460;3.762;2023-07-29T13:06:15;16.30;;;6.88;;
78646;SDS011;67961;43.460;3.762;2023-07-29T13:08:41;12.13;;;6.75;;
78646;SDS011;67961;43.460;3.762;2023-07-29T13:11:08;12.13;;;5.97;;
78646;SDS011;67961;43.460;3.762;2023-07-29T13:13:33;17.50;;;6.40;;
78646;SDS011;67961;43.460;3.762;2023-07-29T13:15:59;13.52;;;6.70;;
78646;SDS011;67961;43.460;3.762;2023-07-29T13:18:26;12.50;;;6.45;;
78646;SDS011;67961;43.460;3.762;2023-07-29T13:20:52;11.50;;;7.32;;
78646;SDS011;67961;43.460;3.762;2023-07-29T13:23:17;13.05;;;7.03;;
78646;SDS011;67961;43.460;3.762;2023-07-29T13:25:43;13.55;;;7.45;;
78646;SDS011;67961;43.460;3.762;2023-07-29T13:28:09;12.68;;;7.68;;
78646;SDS011;67961;43.460;3.762;2023-07-29T13:30:36;16.13;;;7.75;;
78646;SDS011;67961;43.460;3.762;2023-07-29T13:33:01;12.13;;;7.20;;
78646;SDS011;67961;43.460;3.762;2023-07-29T13:35:28;15.82;;;7.05;;
78646;SDS011;67961;43.460;3.762;2023-07-29T13:37:54;12.95;;;7.93;;
78646;SDS011;67961;43.460;3.762;2023-07-29T13:40:20;12.30;;;7.70;;
78646;SDS011;67961;43.460;3.762;2023-07-29T13:42:46;13.32;;;8.15;;
78646;SDS011;67961;43.460;3.762;2023-07-29T13:45:11;11.68;;;7.90;;
78646;SDS011;67961;43.460;3.762;2023-07-29T13:47:37;12.27;;;7.95;;
78646;SDS011;67961;43.460;3.762;2023-07-29T13:50:03;11.80;;;7.63;;
78646;SDS011;67961;43.460;3.762;2023-07-29T13:52:29;12.77;;;8.32;;
78646;SDS011;67961;43.460;3.762;2023-07-29T13:54:54;9.73;;;7.55;;
78646;SDS011;67961;43.460;3.762;2023-07-29T13:57:20;14.13;;;8.75;;
78646;SDS011;67961;43.460;3.762;2023-07-29T13:59:46;10.32;;;7.63;;
78646;SDS011;67961;43.460;3.762;2023-07-29T14:02:11;12.98;;;9.77;;
78646;SDS011;67961;43.460;3.762;2023-07-29T14:04:37;12.65;;;8.55;;
78646;SDS011;67961;43.460;3.762;2023-07-29T14:07:03;17.17;;;8.65;;
78646;SDS011;67961;43.460;3.762;2023-07-29T14:09:29;10.85;;;8.50;;
78646;SDS011;67961;43.460;3.762;2023-07-29T14:11:55;10.88;;;8.32;;
78646;SDS011;67961;43.460;3.762;2023-07-29T14:14:20;10.65;;;8.05;;
78646;SDS011;67961;43.460;3.762;2023-07-29T14:16:46;9.10;;;8.20;;
78646;SDS011;67961;43.460;3.762;2023-07-29T14:19:12;9.45;;;7.68;;
78646;SDS011;67961;43.460;3.762;2023-07-29T14:21:38;13.18;;;7.80;;
78646;SDS011;67961;43.460;3.762;2023-07-29T14:24:04;11.15;;;7.60;;
78646;SDS011;67961;43.460;3.762;2023-07-29T14:26:30;11.07;;;8.65;;
78646;SDS011;67961;43.460;3.762;2023-07-29T14:28:56;12.68;;;8.05;;
78646;SDS011;67961;43.460;3.762;2023-07-29T14:31:21;10.80;;;7.75;;
78646;SDS011;67961;43.460;3.762;2023-07-29T14:33:47;9.00;;;7.50;;
78646;SDS011;67961;43.460;3.762;2023-07-29T14:36:14;9.85;;;7.60;;
78646;SDS011;67961;43.460;3.762;2023-07-29T14:38:39;12.85;;;8.50;;
78646;SDS011;67961;43.460;3.762;2023-07-29T14:41:05;10.50;;;7.32;;
78646;SDS011;67961;43.460;3.762;2023-07-29T14:43:31;10.30;;;6.32;;
78646;SDS011;67961;43.460;3.762;2023-07-29T14:45:57;9.18;;;7.03;;
78646;SDS011;67961;43.460;3.762;2023-07-29T14:48:23;8.27;;;6.20;;
78646;SDS011;67961;43.460;3.762;2023-07-29T14:50:48;7.40;;;6.22;;
78646;SDS011;67961;43.460;3.762;2023-07-29T14:53:14;8.43;;;6.53;;
78646;SDS011;67961;43.460;3.762;2023-07-29T14:55:40;7.30;;;6.47;;